sensor_id;sensor_type;location;lat;lon;timestamp;P1;durP1;ratioP1;P2;durP2;ratioP2
34373;SDS011;20637;55.770;37.592;2022-07-18T00:00:31;10.57;;;4.40;;
34373;SDS011;20637;55.770;37.592;2022-07-18T00:02:57;10.32;;;4.30;;
34373;SDS011;20637;55.770;37.592;2022-07-18T00:05:23;13.20;;;5.15;;
34373;SDS011;20637;55.770;37.592;2022-07-18T00:07:49;12.05;;;4.78;;
34373;SDS011;20637;55.770;37.592;2022-07-18T00:10:15;8.07;;;4.30;;
34373;SDS011;20637;55.770;37.592;2022-07-18T00:12:41;11.60;;;4.85;;
34373;SDS011;20637;55.770;37.592;2022-07-18T00:15:07;9.02;;;4.70;;
34373;SDS011;20637;55.770;37.592;2022-07-18T00:17:35;10.35;;;4.88;;
34373;SDS011;20637;55.770;37.592;2022-07-18T00:20:03;12.18;;;5.15;;
34373;SDS011;20637;55.770;37.592;2022-07-18T00:22:33;15.75;;;5.95;;
34373;SDS011;20637;55.770;37.592;2022-07-18T00:24:58;14.35;;;5.65;;
34373;SDS011;20637;55.770;37.592;2022-07-18T00:27:24;12.77;;;5.65;;
34373;SDS011;20637;55.770;37.592;2022-07-18T00:29:50;12.93;;;4.93;;
34373;SDS011;20637;55.770;37.592;2022-07-18T00:32:16;12.25;;;4.65;;
34373;SDS011;20637;55.770;37.592;2022-07-18T00:34:42;11.82;;;4.88;;
34373;SDS011;20637;55.770;37.592;2022-07-18T00:37:08;12.50;;;5.07;;
34373;SDS011;20637;55.770;37.592;2022-07-18T00:39:33;9.93;;;4.68;;
34373;SDS011;20637;55.770;37.592;2022-07-18T00:41:59;10.43;;;4.90;;
34373;SDS011;20637;55.770;37.592;2022-07-18T00:44:26;9.52;;;4.78;;
34373;SDS011;20637;55.770;37.592;2022-07-18T00:46:55;8.60;;;4.43;;
34373;SDS011;20637;55.770;37.592;2022-07-18T00:49:23;10.05;;;4.55;;
34373;SDS011;20637;55.770;37.592;2022-07-18T00:51:49;13.02;;;5.18;;
34373;SDS011;20637;55.770;37.592;2022-07-18T00:54:15;10.88;;;4.80;;
34373;SDS011;20637;55.770;37.592;2022-07-18T00:56:42;9.07;;;4.55;;
34373;SDS011;20637;55.770;37.592;2022-07-18T00:59:09;12.23;;;5.20;;
34373;SDS011;20637;55.770;37.592;2022-07-18T01:01:37;12.05;;;4.78;;
34373;SDS011;20637;55.770;37.592;2022-07-18T01:04:11;9.32;;;4.25;;
34373;SDS011;20637;55.770;37.592;2022-07-18T01:06:46;8.60;;;4.43;;
34373;SDS011;20637;55.770;37.592;2022-07-18T01:09:12;9.65;;;4.68;;
34373;SDS011;20637;55.770;37.592;2022-07-18T01:11:38;11.68;;;4.93;;
34373;SDS011;20637;55.770;37.592;2022-07-18T01:14:04;10.90;;;4.93;;
34373;SDS011;20637;55.770;37.592;2022-07-18T01:16:32;9.98;;;4.97;;
34373;SDS011;20637;55.770;37.592;2022-07-18T01:18:58;12.50;;;5.43;;
34373;SDS011;20637;55.770;37.592;2022-07-18T01:21:24;10.30;;;4.85;;
34373;SDS011;20637;55.770;37.592;2022-07-18T01:23:50;8.98;;;4.20;;
34373;SDS011;20637;55.770;37.592;2022-07-18T01:26:16;9.73;;;4.10;;
34373;SDS011;20637;55.770;37.592;2022-07-18T01:28:43;9.25;;;4.05;;
34373;SDS011;20637;55.770;37.592;2022-07-18T01:31:09;6.43;;;3.65;;
34373;SDS011;20637;55.770;37.592;2022-07-18T01:33:35;9.48;;;4.78;;
34373;SDS011;20637;55.770;37.592;2022-07-18T01:36:02;10.73;;;4.35;;
34373;SDS011;20637;55.770;37.592;2022-07-18T01:38:30;7.07;;;3.88;;
34373;SDS011;20637;55.770;37.592;2022-07-18T01:40:57;9.02;;;3.88;;
34373;SDS011;20637;55.770;37.592;2022-07-18T01:43:24;6.95;;;3.55;;
34373;SDS011;20637;55.770;37.592;2022-07-18T01:45:50;10.35;;;4.40;;
34373;SDS011;20637;55.770;37.592;2022-07-18T01:48:16;7.43;;;3.78;;
34373;SDS011;20637;55.770;37.592;2022-07-18T01:50:42;11.35;;;3.90;;
34373;SDS011;20637;55.770;37.592;2022-07-18T01:53:08;8.18;;;3.35;;
34373;SDS011;20637;55.770;37.592;2022-07-18T01:55:34;9.07;;;3.78;;
34373;SDS011;20637;55.770;37.592;2022-07-18T01:58:00;11.05;;;4.07;;
34373;SDS011;20637;55.770;37.592;2022-07-18T02:00:25;13.75;;;4.72;;
34373;SDS011;20637;55.770;37.592;2022-07-18T02:02:52;6.38;;;3.40;;
34373;SDS011;20637;55.770;37.592;2022-07-18T02:05:17;5.32;;;3.20;;
34373;SDS011;20637;55.770;37.592;2022-07-18T02:07:43;8.35;;;3.35;;
34373;SDS011;20637;55.770;37.592;2022-07-18T02:10:14;11.70;;;4.15;;
34373;SDS011;20637;55.770;37.592;2022-07-18T02:12:44;7.95;;;3.05;;
34373;SDS011;20637;55.770;37.592;2022-07-18T02:15:30;6.70;;;3.53;;
34373;SDS011;20637;55.770;37.592;2022-07-18T02:17:56;7.60;;;3.45;;
34373;SDS011;20637;55.770;37.592;2022-07-18T02:20:22;6.30;;;3.15;;
34373;SDS011;20637;55.770;37.592;2022-07-18T02:22:48;8.50;;;3.40;;
34373;SDS011;20637;55.770;37.592;2022-07-18T02:25:14;8.73;;;3.75;;
34373;SDS011;20637;55.770;37.592;2022-07-18T02:27:40;11.50;;;4.30;;
34373;SDS011;20637;55.770;37.592;2022-07-18T02:30:07;7.65;;;3.70;;
34373;SDS011;20637;55.770;37.592;2022-07-18T02:32:34;9.40;;;4.15;;
34373;SDS011;20637;55.770;37.592;2022-07-18T02:35:03;8.05;;;3.92;;
34373;SDS011;20637;55.770;37.592;2022-07-18T02:37:31;10.60;;;4.20;;
34373;SDS011;20637;55.770;37.592;2022-07-18T02:39:57;7.95;;;3.28;;
34373;SDS011;20637;55.770;37.592;2022-07-18T02:42:23;10.77;;;3.78;;
34373;SDS011;20637;55.770;37.592;2022-07-18T02:44:49;15.30;;;4.85;;
34373;SDS011;20637;55.770;37.592;2022-07-18T02:47:14;21.27;;;7.72;;
34373;SDS011;20637;55.770;37.592;2022-07-18T02:49:43;11.98;;;4.22;;
34373;SDS011;20637;55.770;37.592;2022-07-18T02:52:09;7.15;;;3.22;;
34373;SDS011;20637;55.770;37.592;2022-07-18T02:54:35;13.13;;;4.03;;
34373;SDS011;20637;55.770;37.592;2022-07-18T02:57:03;12.52;;;3.90;;
34373;SDS011;20637;55.770;37.592;2022-07-18T02:59:29;12.40;;;5.13;;
34373;SDS011;20637;55.770;37.592;2022-07-18T03:01:56;12.50;;;4.82;;
34373;SDS011;20637;55.770;37.592;2022-07-18T03:04:25;11.82;;;4.75;;
34373;SDS011;20637;55.770;37.592;2022-07-18T03:06:55;9.57;;;4.67;;
34373;SDS011;20637;55.770;37.592;2022-07-18T03:09:21;6.63;;;3.78;;
34373;SDS011;20637;55.770;37.592;2022-07-18T03:11:56;8.93;;;3.95;;
34373;SDS011;20637;55.770;37.592;2022-07-18T03:14:40;7.13;;;3.78;;
34373;SDS011;20637;55.770;37.592;2022-07-18T03:17:07;5.78;;;3.38;;
34373;SDS011;20637;55.770;37.592;2022-07-18T03:19:36;4.55;;;3.20;;
34373;SDS011;20637;55.770;37.592;2022-07-18T03:22:05;5.25;;;3.40;;
34373;SDS011;20637;55.770;37.592;2022-07-18T03:27:06;3.40;;;2.90;;
34373;SDS011;20637;55.770;37.592;2022-07-18T03:29:37;2.33;;;2.13;;
34373;SDS011;20637;55.770;37.592;2022-07-18T03:32:14;5.30;;;4.55;;
34373;SDS011;20637;55.770;37.592;2022-07-18T03:34:52;3.88;;;2.88;;
34373;SDS011;20637;55.770;37.592;2022-07-18T03:37:18;3.17;;;2.55;;
34373;SDS011;20637;55.770;37.592;2022-07-18T03:39:44;3.28;;;2.50;;
34373;SDS011;20637;55.770;37.592;2022-07-18T03:42:10;3.20;;;2.38;;
34373;SDS011;20637;55.770;37.592;2022-07-18T03:44:36;4.93;;;3.58;;
34373;SDS011;20637;55.770;37.592;2022-07-18T03:47:02;5.35;;;3.80;;
34373;SDS011;20637;55.770;37.592;2022-07-18T03:49:32;3.17;;;2.88;;
34373;SDS011;20637;55.770;37.592;2022-07-18T03:51:58;5.57;;;3.50;;
34373;SDS011;20637;55.770;37.592;2022-07-18T03:54:27;4.80;;;2.70;;
34373;SDS011;20637;55.770;37.592;2022-07-18T03:56:54;8.02;;;3.25;;
34373;SDS011;20637;55.770;37.592;2022-07-18T03:59:26;4.07;;;2.95;;
34373;SDS011;20637;55.770;37.592;2022-07-18T04:01:53;3.05;;;2.33;;
34373;SDS011;20637;55.770;37.592;2022-07-18T04:04:18;5.75;;;2.47;;
34373;SDS011;20637;55.770;37.592;2022-07-18T04:06:50;3.72;;;2.67;;
34373;SDS011;20637;55.770;37.592;2022-07-18T04:09:16;2.92;;;2.50;;
34373;SDS011;20637;55.770;37.592;2022-07-18T04:11:42;5.40;;;2.67;;
34373;SDS011;20637;55.770;37.592;2022-07-18T04:14:13;3.67;;;2.08;;
34373;SDS011;20637;55.770;37.592;2022-07-18T04:16:39;9.23;;;4.05;;
34373;SDS011;20637;55.770;37.592;2022-07-18T04:19:05;6.78;;;3.13;;
34373;SDS011;20637;55.770;37.592;2022-07-18T04:21:30;2.35;;;1.90;;
34373;SDS011;20637;55.770;37.592;2022-07-18T04:23:56;3.72;;;2.70;;
34373;SDS011;20637;55.770;37.592;2022-07-18T04:26:22;5.25;;;3.30;;
34373;SDS011;20637;55.770;37.592;2022-07-18T04:28:48;4.28;;;2.80;;
34373;SDS011;20637;55.770;37.592;2022-07-18T04:31:13;4.63;;;3.00;;
34373;SDS011;20637;55.770;37.592;2022-07-18T04:33:39;5.10;;;2.72;;
34373;SDS011;20637;55.770;37.592;2022-07-18T04:36:05;11.52;;;3.58;;
34373;SDS011;20637;55.770;37.592;2022-07-18T04:38:31;5.32;;;3.13;;
34373;SDS011;20637;55.770;37.592;2022-07-18T04:40:59;4.18;;;2.92;;
34373;SDS011;20637;55.770;37.592;2022-07-18T04:43:25;5.13;;;3.25;;
34373;SDS011;20637;55.770;37.592;2022-07-18T04:45:51;6.30;;;3.40;;
34373;SDS011;20637;55.770;37.592;2022-07-18T04:48:16;6.55;;;3.03;;
34373;SDS011;20637;55.770;37.592;2022-07-18T04:50:42;8.38;;;3.80;;
34373;SDS011;20637;55.770;37.592;2022-07-18T04:53:08;8.85;;;3.78;;
34373;SDS011;20637;55.770;37.592;2022-07-18T04:55:34;9.07;;;4.10;;
34373;SDS011;20637;55.770;37.592;2022-07-18T04:58:00;10.25;;;4.60;;
34373;SDS011;20637;55.770;37.592;2022-07-18T05:00:26;9.93;;;4.57;;
34373;SDS011;20637;55.770;37.592;2022-07-18T05:02:52;8.18;;;4.57;;
34373;SDS011;20637;55.770;37.592;2022-07-18T05:05:20;11.35;;;4.45;;
34373;SDS011;20637;55.770;37.592;2022-07-18T05:07:47;10.38;;;4.47;;
34373;SDS011;20637;55.770;37.592;2022-07-18T05:10:15;11.25;;;5.55;;
34373;SDS011;20637;55.770;37.592;2022-07-18T05:12:42;7.88;;;4.30;;
34373;SDS011;20637;55.770;37.592;2022-07-18T05:15:10;10.60;;;4.40;;
34373;SDS011;20637;55.770;37.592;2022-07-18T05:17:38;11.27;;;4.65;;
34373;SDS011;20637;55.770;37.592;2022-07-18T05:20:05;12.93;;;4.93;;
34373;SDS011;20637;55.770;37.592;2022-07-18T05:22:33;11.48;;;4.63;;
34373;SDS011;20637;55.770;37.592;2022-07-18T05:24:59;12.90;;;4.93;;
34373;SDS011;20637;55.770;37.592;2022-07-18T05:27:26;10.98;;;4.47;;
34373;SDS011;20637;55.770;37.592;2022-07-18T05:29:52;15.10;;;6.22;;
34373;SDS011;20637;55.770;37.592;2022-07-18T05:32:18;12.43;;;5.47;;
34373;SDS011;20637;55.770;37.592;2022-07-18T05:34:43;10.75;;;5.07;;
34373;SDS011;20637;55.770;37.592;2022-07-18T05:37:09;10.73;;;5.53;;
34373;SDS011;20637;55.770;37.592;2022-07-18T05:39:35;13.70;;;5.40;;
34373;SDS011;20637;55.770;37.592;2022-07-18T05:42:02;10.77;;;5.00;;
34373;SDS011;20637;55.770;37.592;2022-07-18T05:44:28;9.90;;;4.90;;
34373;SDS011;20637;55.770;37.592;2022-07-18T05:46:54;13.10;;;5.43;;
34373;SDS011;20637;55.770;37.592;2022-07-18T05:49:19;16.95;;;5.78;;
34373;SDS011;20637;55.770;37.592;2022-07-18T05:51:45;14.15;;;5.57;;
34373;SDS011;20637;55.770;37.592;2022-07-18T05:54:11;10.93;;;4.97;;
34373;SDS011;20637;55.770;37.592;2022-07-18T05:56:37;15.57;;;5.28;;
34373;SDS011;20637;55.770;37.592;2022-07-18T05:59:03;12.98;;;4.97;;
34373;SDS011;20637;55.770;37.592;2022-07-18T06:01:29;21.95;;;7.43;;
34373;SDS011;20637;55.770;37.592;2022-07-18T06:03:55;10.15;;;4.65;;
34373;SDS011;20637;55.770;37.592;2022-07-18T06:06:21;11.60;;;4.60;;
34373;SDS011;20637;55.770;37.592;2022-07-18T06:08:48;11.30;;;4.35;;
34373;SDS011;20637;55.770;37.592;2022-07-18T06:11:14;9.63;;;3.88;;
34373;SDS011;20637;55.770;37.592;2022-07-18T06:13:40;9.52;;;4.38;;
34373;SDS011;20637;55.770;37.592;2022-07-18T06:16:07;12.68;;;4.95;;
34373;SDS011;20637;55.770;37.592;2022-07-18T06:18:34;14.18;;;5.95;;
34373;SDS011;20637;55.770;37.592;2022-07-18T06:21:00;15.07;;;5.50;;
34373;SDS011;20637;55.770;37.592;2022-07-18T06:23:27;15.80;;;6.03;;
34373;SDS011;20637;55.770;37.592;2022-07-18T06:25:54;14.90;;;6.00;;
34373;SDS011;20637;55.770;37.592;2022-07-18T06:28:20;11.32;;;5.13;;
34373;SDS011;20637;55.770;37.592;2022-07-18T06:30:46;11.70;;;5.55;;
34373;SDS011;20637;55.770;37.592;2022-07-18T06:33:12;16.10;;;6.07;;
34373;SDS011;20637;55.770;37.592;2022-07-18T06:35:39;13.95;;;5.38;;
34373;SDS011;20637;55.770;37.592;2022-07-18T06:38:05;14.88;;;5.72;;
34373;SDS011;20637;55.770;37.592;2022-07-18T06:40:31;13.75;;;4.95;;
34373;SDS011;20637;55.770;37.592;2022-07-18T06:42:57;15.75;;;6.07;;
34373;SDS011;20637;55.770;37.592;2022-07-18T06:45:24;13.32;;;6.00;;
34373;SDS011;20637;55.770;37.592;2022-07-18T06:47:51;16.30;;;6.60;;
34373;SDS011;20637;55.770;37.592;2022-07-18T06:50:17;14.13;;;6.03;;
34373;SDS011;20637;55.770;37.592;2022-07-18T06:52:43;14.40;;;7.03;;
34373;SDS011;20637;55.770;37.592;2022-07-18T06:55:10;24.77;;;8.85;;
34373;SDS011;20637;55.770;37.592;2022-07-18T06:57:37;17.17;;;6.82;;
34373;SDS011;20637;55.770;37.592;2022-07-18T07:00:04;13.25;;;5.82;;
34373;SDS011;20637;55.770;37.592;2022-07-18T07:02:33;16.23;;;6.30;;
34373;SDS011;20637;55.770;37.592;2022-07-18T07:04:59;20.92;;;7.25;;
34373;SDS011;20637;55.770;37.592;2022-07-18T07:07:24;14.55;;;6.85;;
34373;SDS011;20637;55.770;37.592;2022-07-18T07:09:51;20.50;;;7.65;;
34373;SDS011;20637;55.770;37.592;2022-07-18T07:12:16;18.13;;;6.75;;
34373;SDS011;20637;55.770;37.592;2022-07-18T07:14:42;15.45;;;5.82;;
34373;SDS011;20637;55.770;37.592;2022-07-18T07:17:08;19.23;;;6.25;;
34373;SDS011;20637;55.770;37.592;2022-07-18T07:19:34;12.77;;;5.35;;
34373;SDS011;20637;55.770;37.592;2022-07-18T07:21:59;16.45;;;6.22;;
34373;SDS011;20637;55.770;37.592;2022-07-18T07:24:25;18.38;;;5.95;;
34373;SDS011;20637;55.770;37.592;2022-07-18T07:26:51;11.43;;;5.00;;
34373;SDS011;20637;55.770;37.592;2022-07-18T07:29:17;11.05;;;4.95;;
34373;SDS011;20637;55.770;37.592;2022-07-18T07:31:42;14.98;;;5.55;;
34373;SDS011;20637;55.770;37.592;2022-07-18T07:34:09;16.10;;;6.22;;
34373;SDS011;20637;55.770;37.592;2022-07-18T07:36:35;15.50;;;5.53;;
34373;SDS011;20637;55.770;37.592;2022-07-18T07:39:01;12.80;;;4.72;;
34373;SDS011;20637;55.770;37.592;2022-07-18T07:41:28;21.17;;;6.95;;
34373;SDS011;20637;55.770;37.592;2022-07-18T07:43:54;15.85;;;5.15;;
34373;SDS011;20637;55.770;37.592;2022-07-18T07:46:19;9.70;;;4.30;;
34373;SDS011;20637;55.770;37.592;2022-07-18T07:48:45;10.40;;;4.05;;
34373;SDS011;20637;55.770;37.592;2022-07-18T07:51:13;14.32;;;5.88;;
34373;SDS011;20637;55.770;37.592;2022-07-18T07:53:39;12.45;;;4.55;;
34373;SDS011;20637;55.770;37.592;2022-07-18T07:56:05;14.27;;;4.97;;
34373;SDS011;20637;55.770;37.592;2022-07-18T07:58:31;14.10;;;4.82;;
34373;SDS011;20637;55.770;37.592;2022-07-18T08:00:57;12.50;;;4.78;;
34373;SDS011;20637;55.770;37.592;2022-07-18T08:03:23;11.77;;;4.50;;
34373;SDS011;20637;55.770;37.592;2022-07-18T08:05:49;16.55;;;5.38;;
34373;SDS011;20637;55.770;37.592;2022-07-18T08:08:16;9.85;;;4.40;;
34373;SDS011;20637;55.770;37.592;2022-07-18T08:10:43;11.30;;;4.60;;
34373;SDS011;20637;55.770;37.592;2022-07-18T08:13:10;14.73;;;5.22;;
34373;SDS011;20637;55.770;37.592;2022-07-18T08:15:37;10.00;;;4.03;;
34373;SDS011;20637;55.770;37.592;2022-07-18T08:18:04;14.48;;;5.68;;
34373;SDS011;20637;55.770;37.592;2022-07-18T08:20:30;18.27;;;5.10;;
34373;SDS011;20637;55.770;37.592;2022-07-18T08:22:59;15.80;;;5.40;;
34373;SDS011;20637;55.770;37.592;2022-07-18T08:25:30;11.18;;;4.82;;
34373;SDS011;20637;55.770;37.592;2022-07-18T08:27:58;9.98;;;4.45;;
34373;SDS011;20637;55.770;37.592;2022-07-18T08:30:25;11.15;;;4.50;;
34373;SDS011;20637;55.770;37.592;2022-07-18T08:32:52;14.93;;;5.07;;
34373;SDS011;20637;55.770;37.592;2022-07-18T08:35:17;18.67;;;5.82;;
34373;SDS011;20637;55.770;37.592;2022-07-18T08:37:44;16.38;;;4.97;;
34373;SDS011;20637;55.770;37.592;2022-07-18T08:40:10;14.65;;;5.30;;
34373;SDS011;20637;55.770;37.592;2022-07-18T08:42:37;16.65;;;4.95;;
34373;SDS011;20637;55.770;37.592;2022-07-18T08:45:03;14.13;;;5.15;;
34373;SDS011;20637;55.770;37.592;2022-07-18T08:47:29;16.58;;;5.07;;
34373;SDS011;20637;55.770;37.592;2022-07-18T08:49:56;14.38;;;5.28;;
34373;SDS011;20637;55.770;37.592;2022-07-18T08:52:23;12.95;;;4.28;;
34373;SDS011;20637;55.770;37.592;2022-07-18T08:54:50;9.88;;;3.67;;
34373;SDS011;20637;55.770;37.592;2022-07-18T08:57:16;10.93;;;3.90;;
34373;SDS011;20637;55.770;37.592;2022-07-18T08:59:43;11.35;;;3.47;;
34373;SDS011;20637;55.770;37.592;2022-07-18T09:02:09;10.07;;;3.42;;
34373;SDS011;20637;55.770;37.592;2022-07-18T09:04:35;13.45;;;4.70;;
34373;SDS011;20637;55.770;37.592;2022-07-18T09:07:06;13.98;;;5.15;;
34373;SDS011;20637;55.770;37.592;2022-07-18T09:09:34;10.98;;;4.30;;
34373;SDS011;20637;55.770;37.592;2022-07-18T09:12:02;9.18;;;3.58;;
34373;SDS011;20637;55.770;37.592;2022-07-18T09:14:35;12.35;;;4.72;;
34373;SDS011;20637;55.770;37.592;2022-07-18T09:17:06;12.38;;;4.28;;
34373;SDS011;20637;55.770;37.592;2022-07-18T09:19:40;12.23;;;4.20;;
34373;SDS011;20637;55.770;37.592;2022-07-18T09:22:22;7.93;;;3.03;;
34373;SDS011;20637;55.770;37.592;2022-07-18T09:25:02;14.57;;;4.55;;
34373;SDS011;20637;55.770;37.592;2022-07-18T09:27:38;11.63;;;4.05;;
34373;SDS011;20637;55.770;37.592;2022-07-18T09:35:29;15.38;;;4.80;;
34373;SDS011;20637;55.770;37.592;2022-07-18T09:38:05;13.10;;;4.32;;
34373;SDS011;20637;55.770;37.592;2022-07-18T09:40:37;12.52;;;4.20;;
34373;SDS011;20637;55.770;37.592;2022-07-18T09:43:04;9.30;;;3.67;;
34373;SDS011;20637;55.770;37.592;2022-07-18T09:45:40;9.60;;;4.15;;
34373;SDS011;20637;55.770;37.592;2022-07-18T09:48:11;13.68;;;4.60;;
34373;SDS011;20637;55.770;37.592;2022-07-18T09:50:39;9.18;;;3.45;;
34373;SDS011;20637;55.770;37.592;2022-07-18T09:53:15;7.50;;;3.40;;
34373;SDS011;20637;55.770;37.592;2022-07-18T09:55:48;11.00;;;4.40;;
34373;SDS011;20637;55.770;37.592;2022-07-18T09:58:24;12.05;;;4.55;;
34373;SDS011;20637;55.770;37.592;2022-07-18T10:00:52;14.68;;;5.82;;
34373;SDS011;20637;55.770;37.592;2022-07-18T10:03:19;17.52;;;5.28;;
34373;SDS011;20637;55.770;37.592;2022-07-18T10:05:47;18.42;;;6.32;;
34373;SDS011;20637;55.770;37.592;2022-07-18T10:08:16;14.15;;;5.57;;
34373;SDS011;20637;55.770;37.592;2022-07-18T10:10:44;9.93;;;4.38;;
34373;SDS011;20637;55.770;37.592;2022-07-18T10:13:12;12.10;;;4.78;;
34373;SDS011;20637;55.770;37.592;2022-07-18T10:15:40;14.35;;;5.70;;
34373;SDS011;20637;55.770;37.592;2022-07-18T10:18:08;17.02;;;6.57;;
34373;SDS011;20637;55.770;37.592;2022-07-18T10:23:19;14.52;;;5.00;;
34373;SDS011;20637;55.770;37.592;2022-07-18T10:31:32;12.18;;;4.65;;
34373;SDS011;20637;55.770;37.592;2022-07-18T10:57:30;8.82;;;3.90;;
34373;SDS011;20637;55.770;37.592;2022-07-18T11:00:36;21.15;;;6.82;;
34373;SDS011;20637;55.770;37.592;2022-07-18T11:16:02;21.08;;;6.53;;
34373;SDS011;20637;55.770;37.592;2022-07-18T11:21:23;12.20;;;4.13;;
34373;SDS011;20637;55.770;37.592;2022-07-18T11:24:10;14.73;;;5.05;;
34373;SDS011;20637;55.770;37.592;2022-07-18T11:26:38;7.18;;;3.13;;
34373;SDS011;20637;55.770;37.592;2022-07-18T11:31:51;10.25;;;3.90;;
34373;SDS011;20637;55.770;37.592;2022-07-18T11:34:19;8.95;;;3.75;;
34373;SDS011;20637;55.770;37.592;2022-07-18T11:36:47;12.27;;;4.32;;
34373;SDS011;20637;55.770;37.592;2022-07-18T11:39:13;7.45;;;3.10;;
34373;SDS011;20637;55.770;37.592;2022-07-18T11:41:40;12.25;;;3.92;;
34373;SDS011;20637;55.770;37.592;2022-07-18T11:44:17;21.52;;;7.28;;
34373;SDS011;20637;55.770;37.592;2022-07-18T11:49:35;16.55;;;5.40;;
34373;SDS011;20637;55.770;37.592;2022-07-18T11:52:02;21.35;;;6.72;;
34373;SDS011;20637;55.770;37.592;2022-07-18T11:54:28;34.70;;;9.63;;
34373;SDS011;20637;55.770;37.592;2022-07-18T11:56:55;14.23;;;4.85;;
34373;SDS011;20637;55.770;37.592;2022-07-18T11:59:22;17.85;;;5.75;;
34373;SDS011;20637;55.770;37.592;2022-07-18T12:01:59;15.07;;;5.18;;
34373;SDS011;20637;55.770;37.592;2022-07-18T12:04:33;6.80;;;2.88;;
34373;SDS011;20637;55.770;37.592;2022-07-18T12:07:12;18.15;;;5.93;;
34373;SDS011;20637;55.770;37.592;2022-07-18T12:10:16;11.73;;;4.18;;
34373;SDS011;20637;55.770;37.592;2022-07-18T12:12:42;11.88;;;4.20;;
34373;SDS011;20637;55.770;37.592;2022-07-18T12:15:08;13.10;;;4.20;;
34373;SDS011;20637;55.770;37.592;2022-07-18T12:17:42;14.00;;;4.10;;
34373;SDS011;20637;55.770;37.592;2022-07-18T12:20:14;13.27;;;4.03;;
34373;SDS011;20637;55.770;37.592;2022-07-18T12:25:40;10.75;;;4.15;;
34373;SDS011;20637;55.770;37.592;2022-07-18T12:31:35;11.50;;;3.58;;
34373;SDS011;20637;55.770;37.592;2022-07-18T12:34:09;25.30;;;6.80;;
34373;SDS011;20637;55.770;37.592;2022-07-18T12:36:49;15.13;;;4.43;;
34373;SDS011;20637;55.770;37.592;2022-07-18T12:39:28;18.67;;;5.55;;
34373;SDS011;20637;55.770;37.592;2022-07-18T12:41:59;14.02;;;4.00;;
34373;SDS011;20637;55.770;37.592;2022-07-18T12:44:26;16.42;;;5.15;;
34373;SDS011;20637;55.770;37.592;2022-07-18T12:46:58;16.70;;;5.53;;
34373;SDS011;20637;55.770;37.592;2022-07-18T12:49:36;17.25;;;5.82;;
34373;SDS011;20637;55.770;37.592;2022-07-18T12:52:02;19.05;;;5.65;;
34373;SDS011;20637;55.770;37.592;2022-07-18T12:54:28;17.73;;;5.70;;
34373;SDS011;20637;55.770;37.592;2022-07-18T12:56:54;13.73;;;5.10;;
34373;SDS011;20637;55.770;37.592;2022-07-18T12:59:19;16.30;;;5.35;;
34373;SDS011;20637;55.770;37.592;2022-07-18T13:01:45;11.43;;;4.75;;
34373;SDS011;20637;55.770;37.592;2022-07-18T13:04:11;13.93;;;5.32;;
34373;SDS011;20637;55.770;37.592;2022-07-18T13:06:37;10.85;;;4.00;;
34373;SDS011;20637;55.770;37.592;2022-07-18T13:09:04;15.15;;;6.63;;
34373;SDS011;20637;55.770;37.592;2022-07-18T13:11:29;12.65;;;4.95;;
34373;SDS011;20637;55.770;37.592;2022-07-18T13:13:55;13.63;;;5.07;;
34373;SDS011;20637;55.770;37.592;2022-07-18T13:16:21;11.80;;;4.72;;
34373;SDS011;20637;55.770;37.592;2022-07-18T13:18:47;14.85;;;5.25;;
34373;SDS011;20637;55.770;37.592;2022-07-18T13:21:12;11.95;;;4.63;;
34373;SDS011;20637;55.770;37.592;2022-07-18T13:26:09;12.50;;;5.03;;
34373;SDS011;20637;55.770;37.592;2022-07-18T13:28:35;11.75;;;4.20;;
34373;SDS011;20637;55.770;37.592;2022-07-18T13:31:01;13.90;;;4.05;;
34373;SDS011;20637;55.770;37.592;2022-07-18T13:33:27;18.17;;;5.50;;
34373;SDS011;20637;55.770;37.592;2022-07-18T13:35:54;13.30;;;4.35;;
34373;SDS011;20637;55.770;37.592;2022-07-18T13:38:19;16.10;;;5.60;;
34373;SDS011;20637;55.770;37.592;2022-07-18T13:40:45;12.50;;;4.68;;
34373;SDS011;20637;55.770;37.592;2022-07-18T13:43:11;11.30;;;4.63;;
34373;SDS011;20637;55.770;37.592;2022-07-18T13:45:36;12.02;;;4.53;;
34373;SDS011;20637;55.770;37.592;2022-07-18T13:48:04;17.20;;;5.97;;
34373;SDS011;20637;55.770;37.592;2022-07-18T13:50:30;13.18;;;4.65;;
34373;SDS011;20637;55.770;37.592;2022-07-18T13:52:56;16.60;;;5.60;;
34373;SDS011;20637;55.770;37.592;2022-07-18T13:55:22;13.30;;;4.95;;
34373;SDS011;20637;55.770;37.592;2022-07-18T14:00:19;14.77;;;4.32;;
34373;SDS011;20637;55.770;37.592;2022-07-18T14:02:45;10.32;;;4.30;;
34373;SDS011;20637;55.770;37.592;2022-07-18T14:05:11;14.52;;;5.10;;
34373;SDS011;20637;55.770;37.592;2022-07-18T14:07:37;20.58;;;6.15;;
34373;SDS011;20637;55.770;37.592;2022-07-18T14:10:03;10.15;;;4.13;;
34373;SDS011;20637;55.770;37.592;2022-07-18T14:12:29;6.22;;;2.60;;
34373;SDS011;20637;55.770;37.592;2022-07-18T14:14:55;7.07;;;2.95;;
34373;SDS011;20637;55.770;37.592;2022-07-18T14:17:21;11.68;;;3.58;;
34373;SDS011;20637;55.770;37.592;2022-07-18T14:19:46;11.35;;;3.70;;
34373;SDS011;20637;55.770;37.592;2022-07-18T14:22:12;10.43;;;3.72;;
34373;SDS011;20637;55.770;37.592;2022-07-18T14:24:38;4.60;;;2.33;;
34373;SDS011;20637;55.770;37.592;2022-07-18T14:27:04;5.25;;;2.70;;
34373;SDS011;20637;55.770;37.592;2022-07-18T14:29:30;4.03;;;2.40;;
34373;SDS011;20637;55.770;37.592;2022-07-18T14:31:56;2.85;;;1.88;;
34373;SDS011;20637;55.770;37.592;2022-07-18T14:34:21;4.50;;;2.60;;
34373;SDS011;20637;55.770;37.592;2022-07-18T14:36:47;6.07;;;2.25;;
34373;SDS011;20637;55.770;37.592;2022-07-18T14:39:13;3.78;;;2.55;;
34373;SDS011;20637;55.770;37.592;2022-07-18T14:41:41;5.15;;;2.80;;
34373;SDS011;20637;55.770;37.592;2022-07-18T14:44:11;5.55;;;2.88;;
34373;SDS011;20637;55.770;37.592;2022-07-18T14:46:37;5.97;;;2.88;;
34373;SDS011;20637;55.770;37.592;2022-07-18T14:49:03;6.47;;;3.35;;
34373;SDS011;20637;55.770;37.592;2022-07-18T14:51:32;6.97;;;3.10;;
34373;SDS011;20637;55.770;37.592;2022-07-18T14:53:58;5.82;;;3.70;;
34373;SDS011;20637;55.770;37.592;2022-07-18T14:56:24;7.22;;;3.97;;
34373;SDS011;20637;55.770;37.592;2022-07-18T14:58:51;3.90;;;2.92;;
34373;SDS011;20637;55.770;37.592;2022-07-18T15:01:17;27.48;;;5.15;;
34373;SDS011;20637;55.770;37.592;2022-07-18T15:03:46;7.22;;;3.42;;
34373;SDS011;20637;55.770;37.592;2022-07-18T15:06:12;4.20;;;3.70;;
34373;SDS011;20637;55.770;37.592;2022-07-18T15:08:44;3.40;;;3.08;;
34373;SDS011;20637;55.770;37.592;2022-07-18T15:11:13;3.45;;;2.78;;
34373;SDS011;20637;55.770;37.592;2022-07-18T15:13:39;3.72;;;3.03;;
34373;SDS011;20637;55.770;37.592;2022-07-18T15:16:07;3.80;;;2.35;;
34373;SDS011;20637;55.770;37.592;2022-07-18T15:18:33;3.50;;;2.35;;
34373;SDS011;20637;55.770;37.592;2022-07-18T15:20:59;3.72;;;2.28;;
34373;SDS011;20637;55.770;37.592;2022-07-18T15:23:25;6.28;;;3.47;;
34373;SDS011;20637;55.770;37.592;2022-07-18T15:25:51;3.83;;;2.97;;
34373;SDS011;20637;55.770;37.592;2022-07-18T15:28:16;5.03;;;3.05;;
34373;SDS011;20637;55.770;37.592;2022-07-18T15:30:42;3.05;;;2.75;;
34373;SDS011;20637;55.770;37.592;2022-07-18T15:33:08;4.88;;;3.13;;
34373;SDS011;20637;55.770;37.592;2022-07-18T15:35:33;6.80;;;3.90;;
34373;SDS011;20637;55.770;37.592;2022-07-18T15:37:59;5.63;;;3.92;;
34373;SDS011;20637;55.770;37.592;2022-07-18T15:40:25;6.13;;;3.15;;